createdAt,value
2022-07-29T00:00:37.753Z,17.18
2022-07-29T00:01:37.709Z,17.18
2022-07-29T00:02:37.730Z,17.18
2022-07-29T00:03:37.736Z,17.15
2022-07-29T00:04:37.713Z,17.15
2022-07-29T00:05:37.801Z,17.16
2022-07-29T00:06:37.642Z,17.14
2022-07-29T00:07:37.653Z,17.14
2022-07-29T00:08:37.629Z,17.11
2022-07-29T00:09:41.935Z,17.12
2022-07-29T00:10:38.620Z,17.11
2022-07-29T00:11:37.614Z,17.08
2022-07-29T00:12:37.639Z,17.06
2022-07-29T00:13:37.578Z,17.07
2022-07-29T00:14:37.572Z,17.06
2022-07-29T00:15:37.580Z,17.03
2022-07-29T00:16:37.572Z,17.04
2022-07-29T00:17:37.554Z,17.03
2022-07-29T00:18:37.534Z,17.01
2022-07-29T00:19:37.506Z,17.03
2022-07-29T00:20:37.507Z,17.00
2022-07-29T00:21:37.493Z,16.98
2022-07-29T00:22:37.522Z,16.97
2022-07-29T00:23:37.489Z,16.98
2022-07-29T00:24:37.465Z,17.01
2022-07-29T00:25:37.456Z,16.98
2022-07-29T00:26:37.574Z,16.97
2022-07-29T00:27:37.438Z,16.96
2022-07-29T00:28:37.419Z,16.96
2022-07-29T00:29:37.438Z,16.96
2022-07-29T00:30:37.401Z,16.94
2022-07-29T00:31:37.436Z,16.94
2022-07-29T00:32:37.401Z,16.96
2022-07-29T00:33:37.383Z,16.94
2022-07-29T00:34:37.353Z,16.89
2022-07-29T00:35:37.371Z,16.91
2022-07-29T00:36:37.337Z,16.88
2022-07-29T00:37:37.322Z,16.88
2022-07-29T00:38:37.314Z,16.88
2022-07-29T00:39:37.299Z,16.83
2022-07-29T00:40:37.311Z,16.86
2022-07-29T00:41:37.272Z,16.83
2022-07-29T00:42:37.280Z,16.83
2022-07-29T00:43:37.260Z,16.85
2022-07-29T00:44:37.271Z,16.88
2022-07-29T00:45:37.256Z,16.89
2022-07-29T00:46:37.299Z,16.83
2022-07-29T00:47:37.249Z,16.83
2022-07-29T00:48:37.292Z,16.85
2022-07-29T00:49:37.206Z,16.85
2022-07-29T00:50:37.212Z,16.82
2022-07-29T00:51:37.174Z,16.81
2022-07-29T00:52:37.170Z,16.82
2022-07-29T00:53:37.170Z,16.85
2022-07-29T00:54:39.843Z,16.82
2022-07-29T00:55:38.169Z,16.82
2022-07-29T00:56:37.118Z,16.76
2022-07-29T00:57:37.114Z,16.81
2022-07-29T00:58:37.111Z,16.76
2022-07-29T00:59:37.095Z,16.76
2022-07-29T01:00:37.142Z,16.75
2022-07-29T01:01:37.100Z,16.75
2022-07-29T01:02:37.182Z,16.78
2022-07-29T01:03:37.042Z,16.73
2022-07-29T01:04:37.045Z,16.73
2022-07-29T01:05:48.265Z,16.73
2022-07-29T01:06:38.016Z,16.70
2022-07-29T01:07:37.001Z,16.68
2022-07-29T01:08:37.026Z,16.70
2022-07-29T01:09:46.239Z,16.68
2022-07-29T01:10:38.027Z,16.68
2022-07-29T01:11:36.967Z,16.68
2022-07-29T01:12:36.977Z,16.71
2022-07-29T01:13:36.936Z,16.70
2022-07-29T01:14:36.938Z,16.73
2022-07-29T01:15:36.957Z,16.71
2022-07-29T01:16:37.923Z,16.68
2022-07-29T01:17:36.912Z,16.67
2022-07-29T01:18:36.904Z,16.68
2022-07-29T01:19:36.873Z,16.70
2022-07-29T01:20:36.884Z,16.70
2022-07-29T01:21:36.861Z,16.68
2022-07-29T01:22:36.837Z,16.70
2022-07-29T01:23:36.870Z,16.68
2022-07-29T01:24:36.830Z,16.68
2022-07-29T01:25:36.823Z,16.68
2022-07-29T01:26:36.824Z,16.70
2022-07-29T01:27:36.824Z,16.68
2022-07-29T01:28:36.804Z,16.66
2022-07-29T01:29:40.387Z,16.64
2022-07-29T01:30:36.786Z,16.63
2022-07-29T01:31:40.278Z,16.64
2022-07-29T01:32:37.751Z,16.61
2022-07-29T01:33:36.727Z,16.61
2022-07-29T01:34:36.755Z,16.63
2022-07-29T01:35:36.705Z,16.61
2022-07-29T01:36:36.701Z,16.61
2022-07-29T01:37:36.696Z,16.58
2022-07-29T01:38:36.691Z,16.60
2022-07-29T01:39:36.700Z,16.60
2022-07-29T01:40:36.668Z,16.60
2022-07-29T01:41:36.654Z,16.57
2022-07-29T01:42:36.643Z,16.57
2022-07-29T01:43:36.756Z,16.56
2022-07-29T01:44:36.626Z,16.58
2022-07-29T01:45:36.608Z,16.52
2022-07-29T01:46:36.647Z,16.53
2022-07-29T01:47:36.612Z,16.57
2022-07-29T01:48:36.619Z,16.50
2022-07-29T01:49:36.584Z,16.49
2022-07-29T01:50:36.579Z,16.50
2022-07-29T01:51:36.547Z,16.50
2022-07-29T01:52:36.526Z,16.45
2022-07-29T01:53:37.936Z,16.43
2022-07-29T01:54:36.517Z,16.42
2022-07-29T01:55:36.515Z,16.45
2022-07-29T01:56:36.490Z,16.41
2022-07-29T01:57:36.490Z,16.41
2022-07-29T01:58:36.476Z,16.35
2022-07-29T01:59:36.472Z,16.35
2022-07-29T02:00:36.437Z,16.38
2022-07-29T02:01:36.605Z,16.35
2022-07-29T02:02:36.440Z,16.34
2022-07-29T02:03:36.401Z,16.33
2022-07-29T02:04:36.473Z,16.35
2022-07-29T02:05:36.397Z,16.31
2022-07-29T02:06:36.403Z,16.33
2022-07-29T02:07:36.402Z,16.30
2022-07-29T02:08:36.357Z,16.31
2022-07-29T02:09:36.352Z,16.30
2022-07-29T02:10:36.394Z,16.27
2022-07-29T02:11:36.331Z,16.28
2022-07-29T02:12:36.321Z,16.24
2022-07-29T02:13:36.310Z,16.23
2022-07-29T02:14:36.305Z,16.27
2022-07-29T02:15:36.304Z,16.24
2022-07-29T02:16:36.437Z,16.21
2022-07-29T02:17:36.252Z,16.23
2022-07-29T02:18:36.276Z,16.21
2022-07-29T02:19:36.261Z,16.21
2022-07-29T02:20:36.245Z,16.21
2022-07-29T02:21:36.245Z,16.20
2022-07-29T02:22:36.213Z,16.15
2022-07-29T02:23:45.274Z,16.15
2022-07-29T02:24:37.206Z,16.12
2022-07-29T02:25:37.460Z,16.11
2022-07-29T02:26:36.217Z,16.12
2022-07-29T02:27:36.188Z,16.12
2022-07-29T02:28:36.146Z,16.11
2022-07-29T02:29:36.107Z,16.12
2022-07-29T02:30:36.081Z,16.12
2022-07-29T02:31:36.144Z,16.12
2022-07-29T02:32:36.054Z,16.15
2022-07-29T02:33:36.103Z,16.17
2022-07-29T02:34:36.087Z,16.17
2022-07-29T02:35:36.088Z,16.15
2022-07-29T02:36:36.085Z,16.15
2022-07-29T02:37:36.008Z,16.14
2022-07-29T02:38:35.993Z,16.14
2022-07-29T02:39:35.984Z,16.15
2022-07-29T02:40:36.010Z,16.14
2022-07-29T02:41:36.032Z,16.17
2022-07-29T02:42:35.988Z,16.12
2022-07-29T02:43:35.996Z,16.15
2022-07-29T02:44:35.962Z,16.12
2022-07-29T02:45:35.943Z,16.12
2022-07-29T02:46:35.960Z,16.14
2022-07-29T02:47:41.970Z,16.11
2022-07-29T02:48:36.927Z,16.12
2022-07-29T02:49:35.888Z,16.12
2022-07-29T02:50:35.905Z,16.12
2022-07-29T02:51:44.179Z,16.09
2022-07-29T02:52:36.858Z,16.09
2022-07-29T02:53:35.841Z,16.07
2022-07-29T02:54:35.849Z,16.09
2022-07-29T02:55:35.833Z,16.08
2022-07-29T02:56:35.801Z,16.11
2022-07-29T02:57:35.800Z,16.09
2022-07-29T02:58:36.782Z,16.07
2022-07-29T02:59:35.791Z,16.04
2022-07-29T03:00:35.766Z,16.07
2022-07-29T03:01:35.841Z,16.07
2022-07-29T03:02:35.741Z,16.05
2022-07-29T03:03:35.721Z,16.09
2022-07-29T03:04:35.817Z,16.09
2022-07-29T03:05:35.722Z,16.08
2022-07-29T03:06:38.326Z,16.09
2022-07-29T03:07:35.682Z,16.07
2022-07-29T03:08:35.681Z,16.07
2022-07-29T03:09:35.673Z,16.09
2022-07-29T03:10:35.703Z,16.07
2022-07-29T03:11:49.386Z,16.09
2022-07-29T03:12:36.633Z,16.11
2022-07-29T03:13:35.624Z,16.12
2022-07-29T03:14:35.613Z,16.11
2022-07-29T03:15:35.639Z,16.12
2022-07-29T03:16:40.817Z,16.14
2022-07-29T03:17:36.585Z,16.09
2022-07-29T03:18:35.581Z,16.12
2022-07-29T03:19:35.566Z,16.11
2022-07-29T03:20:35.607Z,16.14
2022-07-29T03:21:35.546Z,16.11
2022-07-29T03:22:35.536Z,16.15
2022-07-29T03:23:37.009Z,16.15
2022-07-29T03:24:35.521Z,16.14
2022-07-29T03:25:35.556Z,16.14
2022-07-29T03:26:35.486Z,16.12
2022-07-29T03:27:35.490Z,16.11
2022-07-29T03:28:35.465Z,16.09
2022-07-29T03:29:35.528Z,16.11
2022-07-29T03:30:35.440Z,16.07
2022-07-29T03:31:35.484Z,16.09
2022-07-29T03:32:35.429Z,16.12
2022-07-29T03:33:35.415Z,16.14
2022-07-29T03:34:35.408Z,16.12
2022-07-29T03:35:35.409Z,16.14
2022-07-29T03:36:35.395Z,16.14
2022-07-29T03:37:35.376Z,16.15
2022-07-29T03:38:35.361Z,16.12
2022-07-29T03:39:35.357Z,16.17
2022-07-29T03:40:35.392Z,16.17
2022-07-29T03:41:35.409Z,16.15
2022-07-29T03:42:35.344Z,16.20
2022-07-29T03:43:35.309Z,16.20
2022-07-29T03:44:35.298Z,16.23
2022-07-29T03:45:35.301Z,16.25
2022-07-29T03:46:35.373Z,16.21
2022-07-29T03:47:43.482Z,16.24
2022-07-29T03:48:36.317Z,16.25
2022-07-29T03:49:35.255Z,16.25
2022-07-29T03:50:35.262Z,16.25
2022-07-29T03:51:35.222Z,16.25
2022-07-29T03:52:35.211Z,16.25
2022-07-29T03:53:35.226Z,16.27
2022-07-29T03:54:35.212Z,16.30
2022-07-29T03:55:35.231Z,16.31
2022-07-29T03:56:35.192Z,16.31
2022-07-29T03:57:35.162Z,16.31
2022-07-29T03:58:35.160Z,16.33
2022-07-29T03:59:35.174Z,16.35
2022-07-29T04:00:35.125Z,16.34
2022-07-29T04:01:35.170Z,16.34
2022-07-29T04:02:35.122Z,16.39
2022-07-29T04:03:35.151Z,16.41
2022-07-29T04:04:35.110Z,16.39
2022-07-29T04:05:35.084Z,16.39
2022-07-29T04:06:35.092Z,16.42
2022-07-29T04:07:35.053Z,16.43
2022-07-29T04:08:35.047Z,16.43
2022-07-29T04:09:35.095Z,16.45
2022-07-29T04:10:35.863Z,16.49
2022-07-29T04:11:35.008Z,16.48
2022-07-29T04:12:36.032Z,16.50
2022-07-29T04:13:34.981Z,16.53
2022-07-29T04:14:34.983Z,16.52
2022-07-29T04:15:35.063Z,16.57
2022-07-29T04:16:35.056Z,16.56
2022-07-29T04:17:34.958Z,16.57
2022-07-29T04:18:34.930Z,16.61
2022-07-29T04:19:34.921Z,16.64
2022-07-29T04:20:34.926Z,16.60
2022-07-29T04:21:34.911Z,16.58
2022-07-29T04:22:34.888Z,16.66
2022-07-29T04:23:34.889Z,16.67
2022-07-29T04:24:34.900Z,16.70
2022-07-29T04:25:34.884Z,16.67
2022-07-29T04:26:34.851Z,16.75
2022-07-29T04:27:34.840Z,16.71
2022-07-29T04:28:34.834Z,16.71
2022-07-29T04:29:34.877Z,16.75
2022-07-29T04:30:34.836Z,16.76
2022-07-29T04:31:34.995Z,16.75
2022-07-29T04:32:34.799Z,16.83
2022-07-29T04:33:34.783Z,16.86
2022-07-29T04:34:34.812Z,16.89
2022-07-29T04:35:38.197Z,16.97
2022-07-29T04:36:34.748Z,16.94
2022-07-29T04:37:34.736Z,16.96
2022-07-29T04:38:34.796Z,16.98
2022-07-29T04:39:34.713Z,16.98
2022-07-29T04:40:34.715Z,17.04
2022-07-29T04:41:34.701Z,17.07
2022-07-29T04:42:34.695Z,17.08
2022-07-29T04:43:36.898Z,17.06
2022-07-29T04:44:37.218Z,17.08
2022-07-29T04:45:35.653Z,17.11
2022-07-29T04:46:34.687Z,17.16
2022-07-29T04:47:34.635Z,17.11
2022-07-29T04:48:34.667Z,17.12
2022-07-29T04:49:34.623Z,17.15
2022-07-29T04:50:34.622Z,17.15
2022-07-29T04:51:34.592Z,17.16
2022-07-29T04:52:34.588Z,17.18
2022-07-29T04:53:34.588Z,17.21
2022-07-29T04:54:34.582Z,17.19
2022-07-29T04:55:34.547Z,17.23
2022-07-29T04:56:34.542Z,17.23
2022-07-29T04:57:34.539Z,17.28
2022-07-29T04:58:34.520Z,17.33
2022-07-29T04:59:34.511Z,17.31
2022-07-29T05:00:34.499Z,17.31
2022-07-29T05:01:34.553Z,17.40
2022-07-29T05:02:34.504Z,17.48
2022-07-29T05:03:34.494Z,17.58
2022-07-29T05:04:34.455Z,17.63
2022-07-29T05:05:34.422Z,17.74
2022-07-29T05:06:34.466Z,17.75
2022-07-29T05:07:34.420Z,17.72
2022-07-29T05:08:34.441Z,17.72
2022-07-29T05:09:34.425Z,17.75
2022-07-29T05:10:34.388Z,17.66
2022-07-29T05:11:34.399Z,17.68
2022-07-29T05:12:34.379Z,17.74
2022-07-29T05:13:45.948Z,17.82
2022-07-29T05:14:35.341Z,17.86
2022-07-29T05:15:34.370Z,17.97
2022-07-29T05:16:34.347Z,18.07
2022-07-29T05:17:34.321Z,18.14
2022-07-29T05:18:34.295Z,18.18
2022-07-29T05:19:34.304Z,18.12
2022-07-29T05:20:35.292Z,18.11
2022-07-29T05:21:34.263Z,18.15
2022-07-29T05:22:34.281Z,18.10
2022-07-29T05:23:34.248Z,18.10
2022-07-29T05:24:34.230Z,18.14
2022-07-29T05:25:44.416Z,18.15
2022-07-29T05:26:35.223Z,18.35
2022-07-29T05:27:34.188Z,18.63
2022-07-29T05:28:34.200Z,18.73
2022-07-29T05:29:43.201Z,18.70
2022-07-29T05:30:35.237Z,18.72
2022-07-29T05:31:34.147Z,18.78
2022-07-29T05:32:34.165Z,18.90
2022-07-29T05:33:35.222Z,18.91
2022-07-29T05:34:34.150Z,18.95
2022-07-29T05:35:34.117Z,18.84
2022-07-29T05:36:34.131Z,18.76
2022-07-29T05:37:34.088Z,18.58
2022-07-29T05:38:34.129Z,18.44
2022-07-29T05:39:47.216Z,18.45
2022-07-29T05:40:35.065Z,18.37
2022-07-29T05:41:34.073Z,18.30
2022-07-29T05:42:34.054Z,18.25
2022-07-29T05:43:34.034Z,18.27
2022-07-29T05:44:34.052Z,18.23
2022-07-29T05:45:34.012Z,18.21
2022-07-29T05:46:35.096Z,18.20
2022-07-29T05:47:34.006Z,18.20
2022-07-29T05:48:34.042Z,18.20
2022-07-29T05:49:34.014Z,18.21
2022-07-29T05:50:33.965Z,18.15
2022-07-29T05:51:33.948Z,18.21
2022-07-29T05:52:33.947Z,18.18
2022-07-29T05:53:33.968Z,18.12
2022-07-29T05:54:33.937Z,18.10
2022-07-29T05:55:33.896Z,18.11
2022-07-29T05:56:33.947Z,18.14
2022-07-29T05:57:33.905Z,18.20
2022-07-29T05:58:33.879Z,18.20
2022-07-29T05:59:33.859Z,18.32
2022-07-29T06:00:33.849Z,18.41
2022-07-29T06:01:33.881Z,18.48
2022-07-29T06:02:33.846Z,18.63
2022-07-29T06:03:33.817Z,19.10
2022-07-29T06:04:33.846Z,19.68
2022-07-29T06:05:33.828Z,20.17
2022-07-29T06:06:33.782Z,20.76
2022-07-29T06:07:33.948Z,21.43
2022-07-29T06:08:33.758Z,22.00
2022-07-29T06:09:36.245Z,22.15
2022-07-29T06:10:33.742Z,21.99
2022-07-29T06:11:33.797Z,22.02
2022-07-29T06:12:33.733Z,21.84
2022-07-29T06:13:33.730Z,21.75
2022-07-29T06:14:33.795Z,21.49
2022-07-29T06:15:33.783Z,20.98
2022-07-29T06:16:33.793Z,20.41
2022-07-29T06:17:33.671Z,20.03
2022-07-29T06:18:34.819Z,19.98
2022-07-29T06:19:33.652Z,19.91
2022-07-29T06:20:33.648Z,19.80
2022-07-29T06:21:33.650Z,19.78
2022-07-29T06:22:33.615Z,19.87
2022-07-29T06:23:33.618Z,20.36
2022-07-29T06:24:33.604Z,20.84
2022-07-29T06:25:33.604Z,21.29
2022-07-29T06:26:37.830Z,21.61
2022-07-29T06:27:34.618Z,21.88
2022-07-29T06:28:33.640Z,21.82
2022-07-29T06:29:33.574Z,21.71
2022-07-29T06:30:33.678Z,21.44
2022-07-29T06:31:33.654Z,21.62
2022-07-29T06:32:33.576Z,21.58
2022-07-29T06:33:33.561Z,21.28
2022-07-29T06:34:33.555Z,21.19
2022-07-29T06:35:38.989Z,21.17
2022-07-29T06:36:34.512Z,21.22
2022-07-29T06:37:33.480Z,21.22
2022-07-29T06:38:34.363Z,21.29
2022-07-29T06:39:34.525Z,21.38
2022-07-29T06:40:33.508Z,21.19
2022-07-29T06:41:33.409Z,21.64
2022-07-29T06:42:33.399Z,21.68
2022-07-29T06:43:33.463Z,21.84
2022-07-29T06:44:33.380Z,21.69
2022-07-29T06:45:33.437Z,21.29
2022-07-29T06:46:33.540Z,21.03
2022-07-29T06:47:33.375Z,20.98
2022-07-29T06:48:33.433Z,21.12
2022-07-29T06:49:33.381Z,21.19
2022-07-29T06:50:33.343Z,21.12
2022-07-29T06:51:33.322Z,21.10
2022-07-29T06:52:33.346Z,20.89
2022-07-29T06:53:33.321Z,20.88
2022-07-29T06:54:33.306Z,20.85
2022-07-29T06:55:33.299Z,20.73
2022-07-29T06:56:39.254Z,20.74
2022-07-29T06:57:34.255Z,20.73
2022-07-29T06:58:33.251Z,20.69
2022-07-29T06:59:35.843Z,20.74
2022-07-29T07:00:33.322Z,20.91
2022-07-29T07:01:33.370Z,20.95
2022-07-29T07:02:33.287Z,20.87
2022-07-29T07:03:33.207Z,20.82
2022-07-29T07:04:33.213Z,20.79
2022-07-29T07:05:33.188Z,20.77
2022-07-29T07:06:33.176Z,20.76
2022-07-29T07:07:33.161Z,20.79
2022-07-29T07:08:33.214Z,20.91
2022-07-29T07:09:40.078Z,21.09
2022-07-29T07:10:34.164Z,21.22
2022-07-29T07:11:33.099Z,21.35
2022-07-29T07:12:33.110Z,21.29
2022-07-29T07:13:33.113Z,21.34
2022-07-29T07:14:33.089Z,21.32
2022-07-29T07:15:39.672Z,21.35
2022-07-29T07:16:34.131Z,21.43
2022-07-29T07:17:33.124Z,21.49
2022-07-29T07:18:33.044Z,21.74
2022-07-29T07:19:33.046Z,21.82
2022-07-29T07:20:33.009Z,21.71
2022-07-29T07:21:33.004Z,21.75
2022-07-29T07:22:38.420Z,21.86
2022-07-29T07:23:34.008Z,21.80
2022-07-29T07:24:32.969Z,21.86
2022-07-29T07:25:32.972Z,21.96
2022-07-29T07:26:32.948Z,21.96
2022-07-29T07:27:32.928Z,21.91
2022-07-29T07:28:32.990Z,21.92
2022-07-29T07:29:32.908Z,21.82
2022-07-29T07:30:32.914Z,21.64
2022-07-29T07:31:32.911Z,21.67
2022-07-29T07:32:32.890Z,21.67
2022-07-29T07:33:32.931Z,21.69
2022-07-29T07:34:32.861Z,21.65
2022-07-29T07:35:32.837Z,21.71
2022-07-29T07:36:32.828Z,21.69
2022-07-29T07:37:32.826Z,21.74
2022-07-29T07:38:32.837Z,21.74
2022-07-29T07:39:32.815Z,21.67
2022-07-29T07:40:32.819Z,21.69
2022-07-29T07:41:32.789Z,21.83
2022-07-29T07:42:32.777Z,21.88
2022-07-29T07:43:32.787Z,21.86
2022-07-29T07:44:32.753Z,21.79
2022-07-29T07:45:32.848Z,21.79
2022-07-29T07:46:32.738Z,21.84
2022-07-29T07:47:32.735Z,21.90
2022-07-29T07:48:32.774Z,22.02
2022-07-29T07:49:32.728Z,21.92
2022-07-29T07:50:32.704Z,21.86
2022-07-29T07:51:32.702Z,22.02
2022-07-29T07:52:32.662Z,22.07
2022-07-29T07:53:32.727Z,22.14
2022-07-29T07:54:32.656Z,22.20
2022-07-29T07:56:00.055Z,22.27
2022-07-29T07:56:35.451Z,22.28
2022-07-29T07:57:32.648Z,22.25
2022-07-29T07:58:32.625Z,22.27
2022-07-29T07:59:32.611Z,22.28
2022-07-29T08:00:32.575Z,22.35
2022-07-29T08:01:48.099Z,22.33
2022-07-29T08:02:33.660Z,22.39
2022-07-29T08:03:32.597Z,22.40
2022-07-29T08:04:32.535Z,22.31
2022-07-29T08:05:32.551Z,22.33
2022-07-29T08:06:32.523Z,22.43
2022-07-29T08:07:32.532Z,22.55
2022-07-29T08:08:32.530Z,22.62
2022-07-29T08:09:32.519Z,22.73
2022-07-29T08:10:32.468Z,22.76
2022-07-29T08:11:34.006Z,22.70
2022-07-29T08:12:33.472Z,22.73
2022-07-29T08:13:32.469Z,22.82
2022-07-29T08:14:32.446Z,22.91
2022-07-29T08:15:32.434Z,22.95
2022-07-29T08:16:32.471Z,23.00
2022-07-29T08:17:35.560Z,22.98
2022-07-29T08:18:32.473Z,23.09
2022-07-29T08:19:32.408Z,23.05
2022-07-29T08:20:32.510Z,23.04
2022-07-29T08:21:32.370Z,23.02
2022-07-29T08:22:32.396Z,23.07
2022-07-29T08:23:46.161Z,23.13
2022-07-29T08:24:33.349Z,23.22
2022-07-29T08:25:32.343Z,23.19
2022-07-29T08:26:32.332Z,23.23
2022-07-29T08:27:47.533Z,23.39
2022-07-29T08:28:33.328Z,23.55
2022-07-29T08:29:32.293Z,23.66
2022-07-29T08:30:32.270Z,23.72
2022-07-29T08:31:32.384Z,23.83
2022-07-29T08:32:52.462Z,23.88
2022-07-29T08:33:33.254Z,23.93
2022-07-29T08:34:32.249Z,23.84
2022-07-29T08:35:35.683Z,23.66
2022-07-29T08:36:32.205Z,23.65
2022-07-29T08:37:32.214Z,23.70
2022-07-29T08:38:32.197Z,23.78
2022-07-29T08:39:32.217Z,23.75
2022-07-29T08:40:32.771Z,23.72
2022-07-29T08:41:32.146Z,23.66
2022-07-29T08:42:32.169Z,23.60
2022-07-29T08:43:32.135Z,23.58
2022-07-29T08:44:32.190Z,23.63
2022-07-29T08:45:32.154Z,23.75
2022-07-29T08:46:32.119Z,23.87
2022-07-29T08:47:32.093Z,23.95
2022-07-29T08:48:32.092Z,24.09
2022-07-29T08:49:32.101Z,24.18
2022-07-29T08:50:32.085Z,24.24
2022-07-29T08:51:32.056Z,24.35
2022-07-29T08:52:32.087Z,24.49
2022-07-29T08:53:32.053Z,24.46
2022-07-29T08:54:32.033Z,24.45
2022-07-29T08:55:32.005Z,24.39
2022-07-29T08:56:32.067Z,24.40
2022-07-29T08:57:32.004Z,24.22
2022-07-29T08:58:32.017Z,24.06
2022-07-29T08:59:31.991Z,23.91
2022-07-29T09:00:31.955Z,23.93
2022-07-29T09:01:35.646Z,23.97
2022-07-29T09:02:32.928Z,24.08
2022-07-29T09:03:31.997Z,24.09
2022-07-29T09:04:31.938Z,24.09
2022-07-29T09:05:31.909Z,24.09
2022-07-29T09:06:31.910Z,24.09
2022-07-29T09:07:32.984Z,24.13
2022-07-29T09:08:31.920Z,24.24
2022-07-29T09:09:31.894Z,24.25
2022-07-29T09:10:31.856Z,24.30
2022-07-29T09:11:31.843Z,24.40
2022-07-29T09:12:36.125Z,24.52
2022-07-29T09:13:32.886Z,24.64
2022-07-29T09:14:31.843Z,24.69
2022-07-29T09:15:31.811Z,24.68
2022-07-29T09:16:51.907Z,24.61
2022-07-29T09:17:32.876Z,24.46
2022-07-29T09:18:31.779Z,24.46
2022-07-29T09:19:31.805Z,24.55
2022-07-29T09:20:31.752Z,24.67
2022-07-29T09:21:31.745Z,24.78
2022-07-29T09:22:31.791Z,24.78
2022-07-29T09:23:31.714Z,24.81
2022-07-29T09:24:31.727Z,24.87
2022-07-29T09:25:31.735Z,24.87
2022-07-29T09:26:31.700Z,25.05
2022-07-29T09:27:31.699Z,25.23
2022-07-29T09:28:31.676Z,25.24
2022-07-29T09:29:35.989Z,25.06
2022-07-29T09:30:32.048Z,24.91
2022-07-29T09:31:31.679Z,24.87
2022-07-29T09:32:31.640Z,24.95
2022-07-29T09:33:31.644Z,24.98
2022-07-29T09:34:31.613Z,24.98
2022-07-29T09:35:31.600Z,25.00
2022-07-29T09:36:31.590Z,25.18
2022-07-29T09:37:31.614Z,25.23
2022-07-29T09:38:31.566Z,25.32
2022-07-29T09:39:31.583Z,25.35
2022-07-29T09:40:31.560Z,25.36
2022-07-29T09:41:31.524Z,25.38
2022-07-29T09:42:31.533Z,25.38
2022-07-29T09:43:31.513Z,25.39
2022-07-29T09:44:31.515Z,25.38
2022-07-29T09:45:31.510Z,25.33
2022-07-29T09:46:31.507Z,25.23
2022-07-29T09:47:31.485Z,25.20
2022-07-29T09:48:31.465Z,25.24
2022-07-29T09:49:31.453Z,25.18
2022-07-29T09:50:31.445Z,25.13
2022-07-29T09:51:38.143Z,25.14
2022-07-29T09:52:32.403Z,25.27
2022-07-29T09:53:31.439Z,25.28
2022-07-29T09:54:31.398Z,25.27
2022-07-29T09:55:31.383Z,25.33
2022-07-29T09:56:31.404Z,25.40
2022-07-29T09:57:31.501Z,25.51
2022-07-29T09:58:31.359Z,25.52
2022-07-29T09:59:31.356Z,25.61
2022-07-29T10:00:31.432Z,25.60
2022-07-29T10:01:31.333Z,25.55
2022-07-29T10:02:31.317Z,25.55
2022-07-29T10:03:31.472Z,25.57
2022-07-29T10:04:31.286Z,25.55
2022-07-29T10:05:36.561Z,25.55
2022-07-29T10:06:32.270Z,25.62
2022-07-29T10:07:31.279Z,25.70
2022-07-29T10:08:31.289Z,25.82
2022-07-29T10:09:31.261Z,25.91
2022-07-29T10:10:31.260Z,26.10
2022-07-29T10:11:48.159Z,26.15
2022-07-29T10:12:32.261Z,26.20
2022-07-29T10:13:31.202Z,26.05
2022-07-29T10:14:31.183Z,26.10
2022-07-29T10:15:31.190Z,26.29
2022-07-29T10:16:31.245Z,26.44
2022-07-29T10:17:31.194Z,26.60
2022-07-29T10:18:31.163Z,26.76
2022-07-29T10:19:31.142Z,26.85
2022-07-29T10:20:31.128Z,26.84
2022-07-29T10:21:35.869Z,26.94
2022-07-29T10:22:52.420Z,27.04
2022-07-29T10:23:46.743Z,26.70
2022-07-29T10:24:32.085Z,26.52
2022-07-29T10:25:31.066Z,26.45
2022-07-29T10:26:31.068Z,26.47
2022-07-29T10:27:32.960Z,26.43
2022-07-29T10:28:31.039Z,26.44
2022-07-29T10:29:31.018Z,26.33
2022-07-29T10:30:31.033Z,26.36
2022-07-29T10:31:31.151Z,26.35
2022-07-29T10:32:31.074Z,26.44
2022-07-29T10:33:30.990Z,26.33
2022-07-29T10:34:30.978Z,26.25
2022-07-29T10:35:30.966Z,26.17
2022-07-29T10:36:30.980Z,26.30
2022-07-29T10:37:35.339Z,26.30
2022-07-29T10:38:31.934Z,26.39
2022-07-29T10:40:31.920Z,26.66
2022-07-29T10:41:32.411Z,26.72
2022-07-29T10:42:33.540Z,26.66
2022-07-29T10:43:31.901Z,26.63
2022-07-29T10:44:30.881Z,26.66
2022-07-29T10:45:30.866Z,26.57
2022-07-29T10:46:30.929Z,26.73
2022-07-29T10:47:30.879Z,26.66
2022-07-29T10:48:30.832Z,26.70
2022-07-29T10:49:31.200Z,26.81
2022-07-29T10:50:30.811Z,26.92
2022-07-29T10:51:30.797Z,26.69
2022-07-29T10:52:30.821Z,26.81
2022-07-29T10:53:33.813Z,27.06
2022-07-29T10:54:30.768Z,27.31
2022-07-29T10:55:30.749Z,27.72
2022-07-29T10:56:30.734Z,27.87
2022-07-29T10:57:57.728Z,27.84
2022-07-29T10:58:31.709Z,27.93
2022-07-29T10:59:32.342Z,27.70
2022-07-29T11:00:31.720Z,27.50
2022-07-29T11:01:37.740Z,27.59
2022-07-29T11:03:31.813Z,27.31
2022-07-29T11:04:30.688Z,27.32
2022-07-29T11:05:32.299Z,27.43
2022-07-29T11:06:31.652Z,27.63
2022-07-29T11:07:45.660Z,27.67
2022-07-29T11:08:31.643Z,27.34
2022-07-29T11:09:37.489Z,27.36
2022-07-29T11:10:31.953Z,27.59
2022-07-29T11:11:30.583Z,27.75
2022-07-29T11:12:30.597Z,27.54
2022-07-29T11:13:30.555Z,27.19
2022-07-29T11:14:31.568Z,26.94
2022-07-29T11:15:31.672Z,26.75
2022-07-29T11:16:30.540Z,26.67
2022-07-29T11:17:37.620Z,26.70
2022-07-29T11:18:31.518Z,26.77
2022-07-29T11:19:30.988Z,26.94
2022-07-29T11:20:30.493Z,27.07
2022-07-29T11:21:54.145Z,27.02
2022-07-29T11:22:31.471Z,26.80
2022-07-29T11:23:33.702Z,26.63
2022-07-29T11:24:30.534Z,26.60
2022-07-29T11:26:31.463Z,26.69
2022-07-29T11:27:30.431Z,26.84
2022-07-29T11:28:30.396Z,26.80
2022-07-29T11:29:30.386Z,26.85
2022-07-29T11:30:30.389Z,27.03
2022-07-29T11:31:30.384Z,27.12
2022-07-29T11:32:30.363Z,27.19
2022-07-29T11:33:54.113Z,26.87
2022-07-29T11:34:31.334Z,26.66
2022-07-29T11:35:37.099Z,26.69
2022-07-29T11:36:31.336Z,26.77
2022-07-29T11:37:30.313Z,26.99
2022-07-29T11:38:31.674Z,27.25
2022-07-29T11:39:36.261Z,27.34
2022-07-29T11:40:31.268Z,27.09
2022-07-29T11:41:30.268Z,27.24
2022-07-29T11:42:33.038Z,27.29
2022-07-29T11:43:30.270Z,27.25
2022-07-29T11:44:30.251Z,27.19
2022-07-29T11:45:43.574Z,27.07
2022-07-29T11:46:31.211Z,27.28
2022-07-29T11:47:30.288Z,27.60
2022-07-29T11:48:32.452Z,27.84
2022-07-29T11:49:31.760Z,28.14
2022-07-29T11:50:30.174Z,28.19
2022-07-29T11:52:31.150Z,27.94
2022-07-29T11:53:32.659Z,28.00
2022-07-29T11:54:30.122Z,28.02
2022-07-29T11:56:31.145Z,28.04
2022-07-29T11:58:31.091Z,27.63
2022-07-29T11:59:32.951Z,27.36
2022-07-29T12:00:30.068Z,27.32
2022-07-29T12:01:30.117Z,27.18
2022-07-29T12:02:38.317Z,27.32
2022-07-29T12:03:35.516Z,27.50
2022-07-29T12:04:31.025Z,27.50
2022-07-29T12:05:36.986Z,27.69
2022-07-29T12:06:31.016Z,27.87
2022-07-29T12:07:03.595Z,27.97
2022-07-29T12:07:34.804Z,27.97
2022-07-29T12:08:31.017Z,28.12
2022-07-29T12:09:29.996Z,28.15
2022-07-29T12:10:31.072Z,28.24
2022-07-29T12:11:29.957Z,28.09
2022-07-29T12:12:30.040Z,27.92
2022-07-29T12:13:37.069Z,27.87
2022-07-29T12:14:30.922Z,27.82
2022-07-29T12:15:45.663Z,27.85
2022-07-29T12:16:30.949Z,27.82
2022-07-29T12:17:30.513Z,27.69
2022-07-29T12:18:29.940Z,27.87
2022-07-29T12:19:29.888Z,28.04
2022-07-29T12:20:29.858Z,28.17
2022-07-29T12:21:29.854Z,28.02
2022-07-29T12:22:29.850Z,27.78
2022-07-29T12:23:34.717Z,27.75
2022-07-29T12:24:30.856Z,27.69
2022-07-29T12:25:34.040Z,27.69
2022-07-29T12:26:30.795Z,27.67
2022-07-29T12:27:29.815Z,27.82
2022-07-29T12:28:29.810Z,27.93
2022-07-29T12:29:34.557Z,27.69
2022-07-29T12:30:30.776Z,27.60
2022-07-29T12:31:44.011Z,27.43
2022-07-29T12:32:30.828Z,27.29
2022-07-29T12:33:29.764Z,27.46
2022-07-29T12:34:29.733Z,27.69
2022-07-29T12:35:29.699Z,27.78
2022-07-29T12:36:29.688Z,27.82
2022-07-29T12:37:39.094Z,27.92
2022-07-29T12:38:30.684Z,28.02
2022-07-29T12:39:29.657Z,28.11
2022-07-29T12:40:29.661Z,28.19
2022-07-29T12:41:29.634Z,28.24
2022-07-29T12:42:29.620Z,28.22
2022-07-29T12:43:29.612Z,28.24
2022-07-29T12:44:29.659Z,28.14
2022-07-29T12:45:29.617Z,28.30
2022-07-29T12:46:29.646Z,28.18
2022-07-29T12:47:29.573Z,27.94
2022-07-29T12:48:29.568Z,27.78
2022-07-29T12:49:29.574Z,27.85
2022-07-29T12:50:30.579Z,27.66
2022-07-29T12:51:29.552Z,27.75
2022-07-29T12:52:29.542Z,27.82
2022-07-29T12:53:29.524Z,27.90
2022-07-29T12:54:29.514Z,28.11
2022-07-29T12:55:29.519Z,28.29
2022-07-29T12:56:42.264Z,28.25
2022-07-29T12:57:30.481Z,28.24